sensor_id;sensor_type;location;lat;lon;timestamp;P1;durP1;ratioP1;P2;durP2;ratioP2
59856;SDS011;45733;52.668;6.860;2022-12-13T00:01:27;0.90;;;0.90;;
59856;SDS011;45733;52.668;6.860;2022-12-13T00:03:55;0.90;;;0.90;;
59856;SDS011;45733;52.668;6.860;2022-12-13T00:06:25;0.80;;;0.80;;
59856;SDS011;45733;52.668;6.860;2022-12-13T00:08:51;0.80;;;0.80;;
59856;SDS011;45733;52.668;6.860;2022-12-13T00:11:18;0.80;;;0.80;;
59856;SDS011;45733;52.668;6.860;2022-12-13T00:13:50;0.90;;;0.90;;
59856;SDS011;45733;52.668;6.860;2022-12-13T00:16:17;0.90;;;0.90;;
59856;SDS011;45733;52.668;6.860;2022-12-13T00:18:47;0.90;;;0.90;;
59856;SDS011;45733;52.668;6.860;2022-12-13T00:21:15;0.90;;;0.90;;
59856;SDS011;45733;52.668;6.860;2022-12-13T00:23:43;0.90;;;0.90;;
59856;SDS011;45733;52.668;6.860;2022-12-13T00:26:10;0.90;;;0.90;;
59856;SDS011;45733;52.668;6.860;2022-12-13T00:28:41;0.90;;;0.90;;
59856;SDS011;45733;52.668;6.860;2022-12-13T00:31:07;0.90;;;0.90;;
59856;SDS011;45733;52.668;6.860;2022-12-13T00:33:34;0.85;;;0.85;;
59856;SDS011;45733;52.668;6.860;2022-12-13T00:36:03;0.90;;;0.90;;
59856;SDS011;45733;52.668;6.860;2022-12-13T00:38:31;0.90;;;0.90;;
59856;SDS011;45733;52.668;6.860;2022-12-13T00:40:58;0.90;;;0.90;;
59856;SDS011;45733;52.668;6.860;2022-12-13T00:43:24;0.88;;;0.88;;
59856;SDS011;45733;52.668;6.860;2022-12-13T00:45:50;0.90;;;0.90;;
59856;SDS011;45733;52.668;6.860;2022-12-13T00:48:15;0.90;;;0.90;;
59856;SDS011;45733;52.668;6.860;2022-12-13T00:50:41;1.00;;;1.00;;
59856;SDS011;45733;52.668;6.860;2022-12-13T00:53:08;0.90;;;0.90;;
59856;SDS011;45733;52.668;6.860;2022-12-13T00:55:38;0.90;;;0.90;;
59856;SDS011;45733;52.668;6.860;2022-12-13T00:58:04;0.90;;;0.90;;
59856;SDS011;45733;52.668;6.860;2022-12-13T01:00:30;0.90;;;0.90;;
59856;SDS011;45733;52.668;6.860;2022-12-13T01:02:56;0.90;;;0.90;;
59856;SDS011;45733;52.668;6.860;2022-12-13T01:05:22;0.90;;;0.90;;
59856;SDS011;45733;52.668;6.860;2022-12-13T01:07:48;0.80;;;0.80;;
59856;SDS011;45733;52.668;6.860;2022-12-13T01:10:14;0.90;;;0.90;;
59856;SDS011;45733;52.668;6.860;2022-12-13T01:12:40;0.90;;;0.90;;
59856;SDS011;45733;52.668;6.860;2022-12-13T01:15:06;0.80;;;0.80;;
59856;SDS011;45733;52.668;6.860;2022-12-13T01:17:34;0.90;;;0.90;;
59856;SDS011;45733;52.668;6.860;2022-12-13T01:20:00;0.90;;;0.90;;
59856;SDS011;45733;52.668;6.860;2022-12-13T01:22:26;0.90;;;0.90;;
59856;SDS011;45733;52.668;6.860;2022-12-13T01:24:52;0.82;;;0.82;;
59856;SDS011;45733;52.668;6.860;2022-12-13T01:27:17;0.80;;;0.80;;
59856;SDS011;45733;52.668;6.860;2022-12-13T01:29:43;0.90;;;0.90;;
59856;SDS011;45733;52.668;6.860;2022-12-13T01:32:09;0.80;;;0.80;;
59856;SDS011;45733;52.668;6.860;2022-12-13T01:34:35;0.80;;;0.80;;
59856;SDS011;45733;52.668;6.860;2022-12-13T01:39:45;0.90;;;0.90;;
59856;SDS011;45733;52.668;6.860;2022-12-13T01:42:12;0.90;;;0.90;;
59856;SDS011;45733;52.668;6.860;2022-12-13T01:44:58;0.90;;;0.90;;
59856;SDS011;45733;52.668;6.860;2022-12-13T01:47:32;0.90;;;0.90;;
59856;SDS011;45733;52.668;6.860;2022-12-13T01:50:00;0.80;;;0.80;;
59856;SDS011;45733;52.668;6.860;2022-12-13T01:52:29;0.80;;;0.80;;
59856;SDS011;45733;52.668;6.860;2022-12-13T01:54:57;0.90;;;0.90;;
59856;SDS011;45733;52.668;6.860;2022-12-13T01:57:25;0.90;;;0.90;;
59856;SDS011;45733;52.668;6.860;2022-12-13T01:59:52;0.90;;;0.90;;
59856;SDS011;45733;52.668;6.860;2022-12-13T02:02:19;0.90;;;0.90;;
59856;SDS011;45733;52.668;6.860;2022-12-13T02:07:27;0.90;;;0.90;;
59856;SDS011;45733;52.668;6.860;2022-12-13T02:09:56;0.90;;;0.90;;
59856;SDS011;45733;52.668;6.860;2022-12-13T02:12:28;0.85;;;0.85;;
59856;SDS011;45733;52.668;6.860;2022-12-13T02:14:59;0.90;;;0.90;;
59856;SDS011;45733;52.668;6.860;2022-12-13T02:31:13;0.90;;;0.90;;
59856;SDS011;45733;52.668;6.860;2022-12-13T02:39:22;0.90;;;0.90;;
59856;SDS011;45733;52.668;6.860;2022-12-13T02:42:21;0.85;;;0.85;;
59856;SDS011;45733;52.668;6.860;2022-12-13T02:45:10;0.90;;;0.90;;
59856;SDS011;45733;52.668;6.860;2022-12-13T02:47:43;0.90;;;0.90;;
59856;SDS011;45733;52.668;6.860;2022-12-13T02:50:12;0.90;;;0.90;;
59856;SDS011;45733;52.668;6.860;2022-12-13T02:52:39;0.90;;;0.90;;
59856;SDS011;45733;52.668;6.860;2022-12-13T02:55:08;0.90;;;0.90;;
59856;SDS011;45733;52.668;6.860;2022-12-13T02:57:39;0.90;;;0.90;;
59856;SDS011;45733;52.668;6.860;2022-12-13T03:00:08;0.80;;;0.80;;
59856;SDS011;45733;52.668;6.860;2022-12-13T03:08:29;0.90;;;0.90;;
59856;SDS011;45733;52.668;6.860;2022-12-13T03:11:07;0.90;;;0.90;;
59856;SDS011;45733;52.668;6.860;2022-12-13T03:18:59;0.90;;;0.90;;
59856;SDS011;45733;52.668;6.860;2022-12-13T03:21:36;0.90;;;0.90;;
59856;SDS011;45733;52.668;6.860;2022-12-13T03:24:07;0.90;;;0.90;;
59856;SDS011;45733;52.668;6.860;2022-12-13T03:26:33;0.90;;;0.90;;
59856;SDS011;45733;52.668;6.860;2022-12-13T03:29:18;0.90;;;0.90;;
59856;SDS011;45733;52.668;6.860;2022-12-13T03:31:44;0.90;;;0.90;;
59856;SDS011;45733;52.668;6.860;2022-12-13T03:34:10;0.90;;;0.90;;
59856;SDS011;45733;52.668;6.860;2022-12-13T03:36:37;0.90;;;0.90;;
59856;SDS011;45733;52.668;6.860;2022-12-13T03:39:03;0.90;;;0.90;;
59856;SDS011;45733;52.668;6.860;2022-12-13T03:41:29;0.90;;;0.90;;
59856;SDS011;45733;52.668;6.860;2022-12-13T03:43:57;0.90;;;0.90;;
59856;SDS011;45733;52.668;6.860;2022-12-13T03:46:27;0.90;;;0.90;;
59856;SDS011;45733;52.668;6.860;2022-12-13T03:48:52;0.90;;;0.90;;
59856;SDS011;45733;52.668;6.860;2022-12-13T03:51:18;0.90;;;0.90;;
59856;SDS011;45733;52.668;6.860;2022-12-13T03:53:46;0.90;;;0.90;;
59856;SDS011;45733;52.668;6.860;2022-12-13T03:56:14;0.90;;;0.90;;
59856;SDS011;45733;52.668;6.860;2022-12-13T03:58:40;0.90;;;0.90;;
59856;SDS011;45733;52.668;6.860;2022-12-13T04:01:07;0.90;;;0.90;;
59856;SDS011;45733;52.668;6.860;2022-12-13T04:03:35;1.00;;;1.00;;
59856;SDS011;45733;52.668;6.860;2022-12-13T04:06:02;0.90;;;0.90;;
59856;SDS011;45733;52.668;6.860;2022-12-13T04:08:28;0.90;;;0.90;;
59856;SDS011;45733;52.668;6.860;2022-12-13T04:10:56;1.00;;;1.00;;
59856;SDS011;45733;52.668;6.860;2022-12-13T04:13:21;0.90;;;0.90;;
59856;SDS011;45733;52.668;6.860;2022-12-13T04:15:56;1.00;;;1.00;;
59856;SDS011;45733;52.668;6.860;2022-12-13T04:18:25;0.90;;;0.90;;
59856;SDS011;45733;52.668;6.860;2022-12-13T04:20:51;0.90;;;0.90;;
59856;SDS011;45733;52.668;6.860;2022-12-13T04:23:17;1.00;;;1.00;;
59856;SDS011;45733;52.668;6.860;2022-12-13T04:25:43;0.90;;;0.90;;
59856;SDS011;45733;52.668;6.860;2022-12-13T04:28:09;1.00;;;1.00;;
59856;SDS011;45733;52.668;6.860;2022-12-13T04:30:35;0.90;;;0.90;;
59856;SDS011;45733;52.668;6.860;2022-12-13T04:33:01;0.90;;;0.90;;
59856;SDS011;45733;52.668;6.860;2022-12-13T04:35:28;0.90;;;0.90;;
59856;SDS011;45733;52.668;6.860;2022-12-13T04:37:54;0.90;;;0.90;;
59856;SDS011;45733;52.668;6.860;2022-12-13T04:40:21;0.90;;;0.90;;
59856;SDS011;45733;52.668;6.860;2022-12-13T04:42:47;0.90;;;0.90;;
59856;SDS011;45733;52.668;6.860;2022-12-13T04:45:14;0.90;;;0.90;;
59856;SDS011;45733;52.668;6.860;2022-12-13T04:47:41;0.90;;;0.90;;
59856;SDS011;45733;52.668;6.860;2022-12-13T04:50:07;0.90;;;0.90;;
59856;SDS011;45733;52.668;6.860;2022-12-13T04:52:34;0.90;;;0.90;;
59856;SDS011;45733;52.668;6.860;2022-12-13T04:55:00;0.90;;;0.90;;
59856;SDS011;45733;52.668;6.860;2022-12-13T04:57:26;0.90;;;0.90;;
59856;SDS011;45733;52.668;6.860;2022-12-13T04:59:52;0.90;;;0.90;;
59856;SDS011;45733;52.668;6.860;2022-12-13T05:02:17;0.90;;;0.90;;
59856;SDS011;45733;52.668;6.860;2022-12-13T05:04:44;0.90;;;0.90;;
59856;SDS011;45733;52.668;6.860;2022-12-13T05:07:11;0.90;;;0.90;;
59856;SDS011;45733;52.668;6.860;2022-12-13T05:09:37;0.90;;;0.90;;
59856;SDS011;45733;52.668;6.860;2022-12-13T05:12:03;0.98;;;0.98;;
59856;SDS011;45733;52.668;6.860;2022-12-13T05:14:29;0.90;;;0.90;;
59856;SDS011;45733;52.668;6.860;2022-12-13T05:16:56;0.90;;;0.90;;
59856;SDS011;45733;52.668;6.860;2022-12-13T05:19:26;0.90;;;0.90;;
59856;SDS011;45733;52.668;6.860;2022-12-13T05:21:52;0.90;;;0.90;;
59856;SDS011;45733;52.668;6.860;2022-12-13T05:24:18;0.93;;;0.93;;
59856;SDS011;45733;52.668;6.860;2022-12-13T05:26:44;0.90;;;0.90;;
59856;SDS011;45733;52.668;6.860;2022-12-13T05:29:10;0.90;;;0.90;;
59856;SDS011;45733;52.668;6.860;2022-12-13T05:31:36;0.90;;;0.90;;
59856;SDS011;45733;52.668;6.860;2022-12-13T05:34:01;0.90;;;0.90;;
59856;SDS011;45733;52.668;6.860;2022-12-13T05:36:27;0.90;;;0.90;;
59856;SDS011;45733;52.668;6.860;2022-12-13T05:38:53;0.90;;;0.90;;
59856;SDS011;45733;52.668;6.860;2022-12-13T05:41:19;0.90;;;0.90;;
59856;SDS011;45733;52.668;6.860;2022-12-13T05:43:50;1.00;;;1.00;;
59856;SDS011;45733;52.668;6.860;2022-12-13T05:46:16;0.80;;;0.80;;
59856;SDS011;45733;52.668;6.860;2022-12-13T05:48:42;0.90;;;0.90;;
59856;SDS011;45733;52.668;6.860;2022-12-13T05:51:09;0.90;;;0.90;;
59856;SDS011;45733;52.668;6.860;2022-12-13T05:53:35;0.90;;;0.90;;
59856;SDS011;45733;52.668;6.860;2022-12-13T05:56:01;1.00;;;1.00;;
59856;SDS011;45733;52.668;6.860;2022-12-13T05:58:28;0.90;;;0.90;;
59856;SDS011;45733;52.668;6.860;2022-12-13T06:00:53;0.90;;;0.90;;
59856;SDS011;45733;52.668;6.860;2022-12-13T06:03:19;1.00;;;1.00;;
59856;SDS011;45733;52.668;6.860;2022-12-13T06:05:45;0.90;;;0.90;;
59856;SDS011;45733;52.668;6.860;2022-12-13T06:08:11;0.90;;;0.90;;
59856;SDS011;45733;52.668;6.860;2022-12-13T06:10:37;0.90;;;0.90;;
59856;SDS011;45733;52.668;6.860;2022-12-13T06:13:03;0.90;;;0.90;;
59856;SDS011;45733;52.668;6.860;2022-12-13T06:15:30;0.90;;;0.90;;
59856;SDS011;45733;52.668;6.860;2022-12-13T06:17:58;0.90;;;0.90;;
59856;SDS011;45733;52.668;6.860;2022-12-13T06:20:24;0.90;;;0.90;;
59856;SDS011;45733;52.668;6.860;2022-12-13T06:22:50;0.90;;;0.90;;
59856;SDS011;45733;52.668;6.860;2022-12-13T06:25:17;0.90;;;0.90;;
59856;SDS011;45733;52.668;6.860;2022-12-13T06:27:43;0.90;;;0.90;;
59856;SDS011;45733;52.668;6.860;2022-12-13T06:30:09;0.90;;;0.90;;
59856;SDS011;45733;52.668;6.860;2022-12-13T06:32:36;0.90;;;0.90;;
59856;SDS011;45733;52.668;6.860;2022-12-13T06:35:01;0.90;;;0.90;;
59856;SDS011;45733;52.668;6.860;2022-12-13T06:37:27;0.90;;;0.90;;
59856;SDS011;45733;52.668;6.860;2022-12-13T06:39:53;0.90;;;0.90;;
59856;SDS011;45733;52.668;6.860;2022-12-13T06:42:19;0.90;;;0.90;;
59856;SDS011;45733;52.668;6.860;2022-12-13T06:44:45;0.90;;;0.90;;
59856;SDS011;45733;52.668;6.860;2022-12-13T06:47:11;0.90;;;0.90;;
59856;SDS011;45733;52.668;6.860;2022-12-13T06:49:37;0.95;;;0.95;;
59856;SDS011;45733;52.668;6.860;2022-12-13T06:52:03;0.90;;;0.90;;
59856;SDS011;45733;52.668;6.860;2022-12-13T06:54:29;0.95;;;0.95;;
59856;SDS011;45733;52.668;6.860;2022-12-13T06:56:55;0.90;;;0.90;;
59856;SDS011;45733;52.668;6.860;2022-12-13T06:59:21;0.90;;;0.90;;
59856;SDS011;45733;52.668;6.860;2022-12-13T07:01:47;0.90;;;0.90;;
59856;SDS011;45733;52.668;6.860;2022-12-13T07:04:13;0.90;;;0.90;;
59856;SDS011;45733;52.668;6.860;2022-12-13T07:06:39;1.00;;;1.00;;
59856;SDS011;45733;52.668;6.860;2022-12-13T07:09:05;0.90;;;0.90;;
59856;SDS011;45733;52.668;6.860;2022-12-13T07:11:31;1.00;;;1.00;;
59856;SDS011;45733;52.668;6.860;2022-12-13T07:13:57;0.90;;;0.90;;
59856;SDS011;45733;52.668;6.860;2022-12-13T07:16:24;0.90;;;0.90;;
59856;SDS011;45733;52.668;6.860;2022-12-13T07:18:54;0.90;;;0.90;;
59856;SDS011;45733;52.668;6.860;2022-12-13T07:21:21;0.90;;;0.90;;
59856;SDS011;45733;52.668;6.860;2022-12-13T07:23:47;0.90;;;0.90;;
59856;SDS011;45733;52.668;6.860;2022-12-13T07:26:14;0.90;;;0.90;;
59856;SDS011;45733;52.668;6.860;2022-12-13T07:28:41;0.90;;;0.90;;
59856;SDS011;45733;52.668;6.860;2022-12-13T07:31:07;0.90;;;0.90;;
59856;SDS011;45733;52.668;6.860;2022-12-13T07:33:34;0.90;;;0.90;;
59856;SDS011;45733;52.668;6.860;2022-12-13T07:36:01;0.90;;;0.90;;
59856;SDS011;45733;52.668;6.860;2022-12-13T07:38:28;0.90;;;0.90;;
59856;SDS011;45733;52.668;6.860;2022-12-13T07:40:55;0.90;;;0.90;;
59856;SDS011;45733;52.668;6.860;2022-12-13T07:43:22;0.90;;;0.90;;
59856;SDS011;45733;52.668;6.860;2022-12-13T07:45:48;0.90;;;0.90;;
59856;SDS011;45733;52.668;6.860;2022-12-13T07:48:15;0.90;;;0.90;;
59856;SDS011;45733;52.668;6.860;2022-12-13T07:50:41;0.90;;;0.90;;
59856;SDS011;45733;52.668;6.860;2022-12-13T07:53:07;0.90;;;0.90;;
59856;SDS011;45733;52.668;6.860;2022-12-13T07:55:33;0.90;;;0.90;;
59856;SDS011;45733;52.668;6.860;2022-12-13T07:58:01;0.90;;;0.90;;
59856;SDS011;45733;52.668;6.860;2022-12-13T08:00:32;0.90;;;0.90;;
59856;SDS011;45733;52.668;6.860;2022-12-13T08:02:59;0.90;;;0.90;;
59856;SDS011;45733;52.668;6.860;2022-12-13T08:05:26;0.90;;;0.90;;
59856;SDS011;45733;52.668;6.860;2022-12-13T08:07:52;0.90;;;0.90;;
59856;SDS011;45733;52.668;6.860;2022-12-13T08:10:18;0.90;;;0.90;;
59856;SDS011;45733;52.668;6.860;2022-12-13T08:12:44;0.90;;;0.90;;
59856;SDS011;45733;52.668;6.860;2022-12-13T08:15:10;0.90;;;0.90;;
59856;SDS011;45733;52.668;6.860;2022-12-13T08:17:36;1.00;;;1.00;;
59856;SDS011;45733;52.668;6.860;2022-12-13T08:20:03;0.90;;;0.90;;
59856;SDS011;45733;52.668;6.860;2022-12-13T08:22:29;0.90;;;0.90;;
59856;SDS011;45733;52.668;6.860;2022-12-13T08:24:55;0.90;;;0.90;;
59856;SDS011;45733;52.668;6.860;2022-12-13T08:27:22;0.95;;;0.95;;
59856;SDS011;45733;52.668;6.860;2022-12-13T08:29:49;1.00;;;1.00;;
59856;SDS011;45733;52.668;6.860;2022-12-13T08:32:15;1.00;;;1.00;;
59856;SDS011;45733;52.668;6.860;2022-12-13T08:34:41;0.90;;;0.90;;
59856;SDS011;45733;52.668;6.860;2022-12-13T08:37:09;0.90;;;0.90;;
59856;SDS011;45733;52.668;6.860;2022-12-13T08:39:36;0.90;;;0.90;;
59856;SDS011;45733;52.668;6.860;2022-12-13T08:42:04;0.90;;;0.90;;
59856;SDS011;45733;52.668;6.860;2022-12-13T08:44:41;0.90;;;0.90;;
59856;SDS011;45733;52.668;6.860;2022-12-13T08:47:07;0.90;;;0.90;;
59856;SDS011;45733;52.668;6.860;2022-12-13T08:49:33;0.80;;;0.80;;
59856;SDS011;45733;52.668;6.860;2022-12-13T08:51:59;0.90;;;0.90;;
59856;SDS011;45733;52.668;6.860;2022-12-13T08:54:25;0.82;;;0.82;;
59856;SDS011;45733;52.668;6.860;2022-12-13T08:56:51;0.90;;;0.90;;
59856;SDS011;45733;52.668;6.860;2022-12-13T08:59:17;0.80;;;0.80;;
59856;SDS011;45733;52.668;6.860;2022-12-13T09:01:43;0.90;;;0.90;;
59856;SDS011;45733;52.668;6.860;2022-12-13T09:04:09;0.90;;;0.90;;
59856;SDS011;45733;52.668;6.860;2022-12-13T09:06:35;0.90;;;0.90;;
59856;SDS011;45733;52.668;6.860;2022-12-13T09:09:01;0.80;;;0.80;;
59856;SDS011;45733;52.668;6.860;2022-12-13T09:11:27;0.80;;;0.80;;
59856;SDS011;45733;52.668;6.860;2022-12-13T09:13:53;0.90;;;0.90;;
59856;SDS011;45733;52.668;6.860;2022-12-13T09:16:20;0.80;;;0.80;;
59856;SDS011;45733;52.668;6.860;2022-12-13T09:18:48;0.85;;;0.85;;
59856;SDS011;45733;52.668;6.860;2022-12-13T09:21:17;0.70;;;0.70;;
59856;SDS011;45733;52.668;6.860;2022-12-13T09:23:43;0.85;;;0.85;;
59856;SDS011;45733;52.668;6.860;2022-12-13T09:26:10;0.80;;;0.80;;
59856;SDS011;45733;52.668;6.860;2022-12-13T09:28:38;0.80;;;0.80;;
59856;SDS011;45733;52.668;6.860;2022-12-13T09:31:08;0.80;;;0.80;;
59856;SDS011;45733;52.668;6.860;2022-12-13T09:33:36;0.82;;;0.82;;
59856;SDS011;45733;52.668;6.860;2022-12-13T09:36:03;0.80;;;0.80;;
59856;SDS011;45733;52.668;6.860;2022-12-13T09:38:30;0.80;;;0.80;;
59856;SDS011;45733;52.668;6.860;2022-12-13T09:40:57;0.80;;;0.80;;
59856;SDS011;45733;52.668;6.860;2022-12-13T09:43:28;0.80;;;0.80;;
59856;SDS011;45733;52.668;6.860;2022-12-13T09:45:56;0.80;;;0.80;;
59856;SDS011;45733;52.668;6.860;2022-12-13T09:48:28;0.80;;;0.80;;
59856;SDS011;45733;52.668;6.860;2022-12-13T09:50:54;0.80;;;0.80;;
59856;SDS011;45733;52.668;6.860;2022-12-13T09:53:20;0.80;;;0.80;;
59856;SDS011;45733;52.668;6.860;2022-12-13T09:55:49;0.80;;;0.80;;
59856;SDS011;45733;52.668;6.860;2022-12-13T09:58:17;0.80;;;0.80;;
59856;SDS011;45733;52.668;6.860;2022-12-13T10:00:47;0.80;;;0.80;;
59856;SDS011;45733;52.668;6.860;2022-12-13T10:03:15;0.80;;;0.80;;
59856;SDS011;45733;52.668;6.860;2022-12-13T10:05:46;0.80;;;0.80;;
59856;SDS011;45733;52.668;6.860;2022-12-13T10:08:24;0.80;;;0.80;;
59856;SDS011;45733;52.668;6.860;2022-12-13T10:10:59;0.80;;;0.80;;
59856;SDS011;45733;52.668;6.860;2022-12-13T10:16:05;0.75;;;0.75;;
59856;SDS011;45733;52.668;6.860;2022-12-13T10:18:53;0.80;;;0.80;;
59856;SDS011;45733;52.668;6.860;2022-12-13T10:21:23;0.70;;;0.70;;
59856;SDS011;45733;52.668;6.860;2022-12-13T10:24:11;0.80;;;0.80;;
59856;SDS011;45733;52.668;6.860;2022-12-13T10:26:46;0.80;;;0.80;;
59856;SDS011;45733;52.668;6.860;2022-12-13T10:29:12;0.70;;;0.70;;
59856;SDS011;45733;52.668;6.860;2022-12-13T10:31:44;0.70;;;0.70;;
59856;SDS011;45733;52.668;6.860;2022-12-13T10:34:23;0.80;;;0.80;;
59856;SDS011;45733;52.668;6.860;2022-12-13T10:36:52;0.80;;;0.80;;
59856;SDS011;45733;52.668;6.860;2022-12-13T10:39:35;0.80;;;0.80;;
59856;SDS011;45733;52.668;6.860;2022-12-13T10:42:13;0.80;;;0.80;;
59856;SDS011;45733;52.668;6.860;2022-12-13T10:44:44;0.80;;;0.80;;
59856;SDS011;45733;52.668;6.860;2022-12-13T10:47:17;0.80;;;0.80;;
59856;SDS011;45733;52.668;6.860;2022-12-13T10:58:06;0.80;;;0.80;;
59856;SDS011;45733;52.668;6.860;2022-12-13T11:00:43;0.80;;;0.80;;
59856;SDS011;45733;52.668;6.860;2022-12-13T11:06:03;0.80;;;0.80;;
59856;SDS011;45733;52.668;6.860;2022-12-13T11:08:31;0.80;;;0.80;;
59856;SDS011;45733;52.668;6.860;2022-12-13T11:10:58;0.80;;;0.80;;
59856;SDS011;45733;52.668;6.860;2022-12-13T11:13:41;0.70;;;0.70;;
59856;SDS011;45733;52.668;6.860;2022-12-13T11:18:56;0.70;;;0.70;;
59856;SDS011;45733;52.668;6.860;2022-12-13T11:21:31;0.70;;;0.70;;
59856;SDS011;45733;52.668;6.860;2022-12-13T11:24:01;0.80;;;0.80;;
59856;SDS011;45733;52.668;6.860;2022-12-13T11:26:30;0.82;;;0.82;;
59856;SDS011;45733;52.668;6.860;2022-12-13T11:32:03;0.70;;;0.70;;
59856;SDS011;45733;52.668;6.860;2022-12-13T11:37:28;0.80;;;0.80;;
59856;SDS011;45733;52.668;6.860;2022-12-13T11:40:14;0.70;;;0.70;;
59856;SDS011;45733;52.668;6.860;2022-12-13T11:45:49;0.80;;;0.80;;
59856;SDS011;45733;52.668;6.860;2022-12-13T11:48:26;0.70;;;0.70;;
59856;SDS011;45733;52.668;6.860;2022-12-13T11:51:00;0.70;;;0.70;;
59856;SDS011;45733;52.668;6.860;2022-12-13T11:53:51;0.80;;;0.80;;
59856;SDS011;45733;52.668;6.860;2022-12-13T11:56:24;0.60;;;0.60;;
59856;SDS011;45733;52.668;6.860;2022-12-13T12:05:09;0.70;;;0.70;;
59856;SDS011;45733;52.668;6.860;2022-12-13T12:08:15;0.70;;;0.70;;
59856;SDS011;45733;52.668;6.860;2022-12-13T12:10:46;0.77;;;0.77;;
59856;SDS011;45733;52.668;6.860;2022-12-13T12:18:46;0.80;;;0.80;;
59856;SDS011;45733;52.668;6.860;2022-12-13T12:24:11;0.70;;;0.70;;
59856;SDS011;45733;52.668;6.860;2022-12-13T12:34:38;0.70;;;0.70;;
59856;SDS011;45733;52.668;6.860;2022-12-13T12:50:47;0.70;;;0.70;;
59856;SDS011;45733;52.668;6.860;2022-12-13T12:53:34;0.70;;;0.70;;
59856;SDS011;45733;52.668;6.860;2022-12-13T12:59:22;0.70;;;0.70;;
59856;SDS011;45733;52.668;6.860;2022-12-13T13:04:41;0.70;;;0.70;;
59856;SDS011;45733;52.668;6.860;2022-12-13T13:07:29;0.70;;;0.70;;
59856;SDS011;45733;52.668;6.860;2022-12-13T13:09:58;0.70;;;0.70;;
59856;SDS011;45733;52.668;6.860;2022-12-13T13:12:26;0.70;;;0.70;;
59856;SDS011;45733;52.668;6.860;2022-12-13T13:14:54;0.63;;;0.63;;
59856;SDS011;45733;52.668;6.860;2022-12-13T13:19:48;0.70;;;0.70;;
59856;SDS011;45733;52.668;6.860;2022-12-13T13:22:29;0.70;;;0.70;;
59856;SDS011;45733;52.668;6.860;2022-12-13T13:27:35;0.80;;;0.80;;
59856;SDS011;45733;52.668;6.860;2022-12-13T13:30:24;0.75;;;0.75;;
59856;SDS011;45733;52.668;6.860;2022-12-13T13:32:51;0.70;;;0.70;;
59856;SDS011;45733;52.668;6.860;2022-12-13T14:02:23;0.80;;;0.80;;
59856;SDS011;45733;52.668;6.860;2022-12-13T14:05:15;0.70;;;0.70;;
59856;SDS011;45733;52.668;6.860;2022-12-13T14:13:46;0.70;;;0.70;;
59856;SDS011;45733;52.668;6.860;2022-12-13T14:27:21;0.70;;;0.70;;
59856;SDS011;45733;52.668;6.860;2022-12-13T14:29:55;0.77;;;0.77;;
59856;SDS011;45733;52.668;6.860;2022-12-13T14:32:26;0.70;;;0.70;;
59856;SDS011;45733;52.668;6.860;2022-12-13T14:34:55;0.70;;;0.70;;
59856;SDS011;45733;52.668;6.860;2022-12-13T14:37:27;0.80;;;0.80;;
59856;SDS011;45733;52.668;6.860;2022-12-13T14:40:00;0.70;;;0.70;;
59856;SDS011;45733;52.668;6.860;2022-12-13T14:42:49;0.80;;;0.80;;
59856;SDS011;45733;52.668;6.860;2022-12-13T14:45:29;0.70;;;0.70;;
59856;SDS011;45733;52.668;6.860;2022-12-13T14:47:58;0.70;;;0.70;;
59856;SDS011;45733;52.668;6.860;2022-12-13T14:50:28;0.73;;;0.73;;
59856;SDS011;45733;52.668;6.860;2022-12-13T14:52:58;0.80;;;0.80;;
59856;SDS011;45733;52.668;6.860;2022-12-13T14:55:31;0.80;;;0.80;;
59856;SDS011;45733;52.668;6.860;2022-12-13T14:58:00;0.70;;;0.70;;
59856;SDS011;45733;52.668;6.860;2022-12-13T15:00:29;0.70;;;0.70;;
59856;SDS011;45733;52.668;6.860;2022-12-13T15:03:01;0.70;;;0.70;;
59856;SDS011;45733;52.668;6.860;2022-12-13T15:08:06;0.70;;;0.70;;
59856;SDS011;45733;52.668;6.860;2022-12-13T15:10:40;0.70;;;0.70;;
59856;SDS011;45733;52.668;6.860;2022-12-13T15:13:17;0.70;;;0.70;;
59856;SDS011;45733;52.668;6.860;2022-12-13T15:15:45;0.70;;;0.70;;
59856;SDS011;45733;52.668;6.860;2022-12-13T15:18:18;0.70;;;0.70;;
59856;SDS011;45733;52.668;6.860;2022-12-13T15:20:47;0.75;;;0.75;;
59856;SDS011;45733;52.668;6.860;2022-12-13T15:25:47;0.70;;;0.70;;
59856;SDS011;45733;52.668;6.860;2022-12-13T15:28:19;0.73;;;0.73;;
59856;SDS011;45733;52.668;6.860;2022-12-13T15:30:45;0.70;;;0.70;;
59856;SDS011;45733;52.668;6.860;2022-12-13T15:33:17;0.70;;;0.70;;
59856;SDS011;45733;52.668;6.860;2022-12-13T15:35:46;0.80;;;0.80;;
59856;SDS011;45733;52.668;6.860;2022-12-13T15:38:15;0.80;;;0.80;;
59856;SDS011;45733;52.668;6.860;2022-12-13T15:40:48;0.80;;;0.80;;
59856;SDS011;45733;52.668;6.860;2022-12-13T15:43:17;0.70;;;0.70;;
59856;SDS011;45733;52.668;6.860;2022-12-13T15:45:48;0.80;;;0.80;;
59856;SDS011;45733;52.668;6.860;2022-12-13T15:48:21;0.80;;;0.80;;
59856;SDS011;45733;52.668;6.860;2022-12-13T15:51:16;0.80;;;0.80;;
59856;SDS011;45733;52.668;6.860;2022-12-13T15:59:39;0.80;;;0.80;;
59856;SDS011;45733;52.668;6.860;2022-12-13T16:02:21;0.80;;;0.80;;
59856;SDS011;45733;52.668;6.860;2022-12-13T16:04:48;0.80;;;0.80;;
59856;SDS011;45733;52.668;6.860;2022-12-13T16:07:22;0.80;;;0.80;;
59856;SDS011;45733;52.668;6.860;2022-12-13T16:09:54;0.77;;;0.77;;
59856;SDS011;45733;52.668;6.860;2022-12-13T16:12:25;0.80;;;0.80;;
59856;SDS011;45733;52.668;6.860;2022-12-13T16:17:47;0.80;;;0.80;;
59856;SDS011;45733;52.668;6.860;2022-12-13T16:20:15;0.80;;;0.80;;
59856;SDS011;45733;52.668;6.860;2022-12-13T16:22:42;0.80;;;0.80;;
59856;SDS011;45733;52.668;6.860;2022-12-13T16:25:10;0.90;;;0.90;;
59856;SDS011;45733;52.668;6.860;2022-12-13T16:27:38;0.80;;;0.80;;
59856;SDS011;45733;52.668;6.860;2022-12-13T16:30:09;0.80;;;0.80;;
59856;SDS011;45733;52.668;6.860;2022-12-13T16:32:35;0.80;;;0.80;;
59856;SDS011;45733;52.668;6.860;2022-12-13T16:35:01;0.80;;;0.80;;
59856;SDS011;45733;52.668;6.860;2022-12-13T16:37:27;0.80;;;0.80;;
59856;SDS011;45733;52.668;6.860;2022-12-13T16:39:53;0.80;;;0.80;;
59856;SDS011;45733;52.668;6.860;2022-12-13T16:42:19;0.80;;;0.80;;
59856;SDS011;45733;52.668;6.860;2022-12-13T16:44:45;0.80;;;0.80;;
59856;SDS011;45733;52.668;6.860;2022-12-13T16:47:11;0.80;;;0.80;;
59856;SDS011;45733;52.668;6.860;2022-12-13T16:49:38;0.80;;;0.80;;
59856;SDS011;45733;52.668;6.860;2022-12-13T16:52:04;0.88;;;0.88;;
59856;SDS011;45733;52.668;6.860;2022-12-13T16:54:31;0.82;;;0.82;;
59856;SDS011;45733;52.668;6.860;2022-12-13T16:56:58;0.80;;;0.80;;
59856;SDS011;45733;52.668;6.860;2022-12-13T16:59:24;0.80;;;0.80;;
59856;SDS011;45733;52.668;6.860;2022-12-13T17:01:51;0.88;;;0.88;;
59856;SDS011;45733;52.668;6.860;2022-12-13T17:04:19;0.93;;;0.90;;
59856;SDS011;45733;52.668;6.860;2022-12-13T17:06:47;0.80;;;0.80;;
59856;SDS011;45733;52.668;6.860;2022-12-13T17:09:14;0.88;;;0.88;;
59856;SDS011;45733;52.668;6.860;2022-12-13T17:11:40;0.80;;;0.80;;
59856;SDS011;45733;52.668;6.860;2022-12-13T17:14:06;0.80;;;0.80;;
59856;SDS011;45733;52.668;6.860;2022-12-13T17:16:32;0.80;;;0.80;;
59856;SDS011;45733;52.668;6.860;2022-12-13T17:18:58;0.90;;;0.90;;
59856;SDS011;45733;52.668;6.860;2022-12-13T17:21:24;0.80;;;0.80;;
59856;SDS011;45733;52.668;6.860;2022-12-13T17:23:54;0.80;;;0.80;;
59856;SDS011;45733;52.668;6.860;2022-12-13T17:26:22;0.90;;;0.90;;
59856;SDS011;45733;52.668;6.860;2022-12-13T17:28:48;0.80;;;0.80;;
59856;SDS011;45733;52.668;6.860;2022-12-13T17:31:14;0.82;;;0.82;;
59856;SDS011;45733;52.668;6.860;2022-12-13T17:33:41;0.80;;;0.80;;
59856;SDS011;45733;52.668;6.860;2022-12-13T17:36:08;0.80;;;0.80;;
59856;SDS011;45733;52.668;6.860;2022-12-13T17:38:35;0.90;;;0.90;;
59856;SDS011;45733;52.668;6.860;2022-12-13T17:41:02;0.80;;;0.80;;
59856;SDS011;45733;52.668;6.860;2022-12-13T17:43:29;0.80;;;0.80;;
59856;SDS011;45733;52.668;6.860;2022-12-13T17:46:02;0.82;;;0.82;;